sensor_id;sensor_type;location;lat;lon;timestamp;P1;durP1;ratioP1;P2;durP2;ratioP2
68377;SDS011;55322;48.146;11.516;2022-11-20T00:01:39;5.73;;;1.90;;
68377;SDS011;55322;48.146;11.516;2022-11-20T00:04:04;6.97;;;2.10;;
68377;SDS011;55322;48.146;11.516;2022-11-20T00:06:29;5.87;;;1.73;;
68377;SDS011;55322;48.146;11.516;2022-11-20T00:08:55;6.60;;;1.77;;
68377;SDS011;55322;48.146;11.516;2022-11-20T00:11:22;6.05;;;2.03;;
68377;SDS011;55322;48.146;11.516;2022-11-20T00:13:50;4.97;;;1.83;;
68377;SDS011;55322;48.146;11.516;2022-11-20T00:16:19;5.55;;;2.17;;
68377;SDS011;55322;48.146;11.516;2022-11-20T00:18:46;5.97;;;1.90;;
68377;SDS011;55322;48.146;11.516;2022-11-20T00:21:18;6.90;;;1.93;;
68377;SDS011;55322;48.146;11.516;2022-11-20T00:23:43;5.55;;;1.75;;
68377;SDS011;55322;48.146;11.516;2022-11-20T00:26:11;6.15;;;2.13;;
68377;SDS011;55322;48.146;11.516;2022-11-20T00:28:38;6.23;;;2.17;;
68377;SDS011;55322;48.146;11.516;2022-11-20T00:31:04;7.75;;;2.22;;
68377;SDS011;55322;48.146;11.516;2022-11-20T00:33:30;6.57;;;2.60;;
68377;SDS011;55322;48.146;11.516;2022-11-20T00:36:03;6.43;;;2.30;;
68377;SDS011;55322;48.146;11.516;2022-11-20T00:38:36;7.37;;;2.30;;
68377;SDS011;55322;48.146;11.516;2022-11-20T00:41:04;5.47;;;2.10;;
68377;SDS011;55322;48.146;11.516;2022-11-20T00:43:31;8.82;;;2.10;;
68377;SDS011;55322;48.146;11.516;2022-11-20T00:45:57;6.87;;;1.90;;
68377;SDS011;55322;48.146;11.516;2022-11-20T00:48:23;6.20;;;2.25;;
68377;SDS011;55322;48.146;11.516;2022-11-20T00:50:48;8.10;;;2.27;;
68377;SDS011;55322;48.146;11.516;2022-11-20T00:53:13;5.43;;;2.07;;
68377;SDS011;55322;48.146;11.516;2022-11-20T00:55:39;6.87;;;2.00;;
68377;SDS011;55322;48.146;11.516;2022-11-20T00:58:04;6.20;;;1.90;;
68377;SDS011;55322;48.146;11.516;2022-11-20T01:00:30;5.18;;;1.75;;
68377;SDS011;55322;48.146;11.516;2022-11-20T01:02:55;6.63;;;2.30;;
68377;SDS011;55322;48.146;11.516;2022-11-20T01:05:21;6.57;;;2.00;;
68377;SDS011;55322;48.146;11.516;2022-11-20T01:07:46;6.00;;;1.87;;
68377;SDS011;55322;48.146;11.516;2022-11-20T01:10:12;5.15;;;1.60;;
68377;SDS011;55322;48.146;11.516;2022-11-20T01:12:37;5.50;;;1.70;;
68377;SDS011;55322;48.146;11.516;2022-11-20T01:15:02;6.40;;;1.90;;
68377;SDS011;55322;48.146;11.516;2022-11-20T01:17:28;5.33;;;1.93;;
68377;SDS011;55322;48.146;11.516;2022-11-20T01:19:53;5.73;;;1.90;;
68377;SDS011;55322;48.146;11.516;2022-11-20T01:22:18;6.20;;;2.40;;
68377;SDS011;55322;48.146;11.516;2022-11-20T01:24:44;8.48;;;1.92;;
68377;SDS011;55322;48.146;11.516;2022-11-20T01:27:09;6.10;;;2.00;;
68377;SDS011;55322;48.146;11.516;2022-11-20T01:29:34;5.57;;;1.70;;
68377;SDS011;55322;48.146;11.516;2022-11-20T01:32:00;5.27;;;1.80;;
68377;SDS011;55322;48.146;11.516;2022-11-20T01:34:25;6.33;;;2.20;;
68377;SDS011;55322;48.146;11.516;2022-11-20T01:36:51;6.10;;;1.80;;
68377;SDS011;55322;48.146;11.516;2022-11-20T01:39:22;5.70;;;1.80;;
68377;SDS011;55322;48.146;11.516;2022-11-20T01:41:50;5.93;;;1.80;;
68377;SDS011;55322;48.146;11.516;2022-11-20T01:47:24;5.23;;;1.60;;
68377;SDS011;55322;48.146;11.516;2022-11-20T01:49:58;5.47;;;1.75;;
68377;SDS011;55322;48.146;11.516;2022-11-20T01:52:36;5.88;;;1.83;;
68377;SDS011;55322;48.146;11.516;2022-11-20T01:55:10;5.72;;;2.00;;
68377;SDS011;55322;48.146;11.516;2022-11-20T01:57:39;5.75;;;2.25;;
68377;SDS011;55322;48.146;11.516;2022-11-20T02:00:07;6.30;;;1.97;;
68377;SDS011;55322;48.146;11.516;2022-11-20T02:02:35;5.20;;;1.70;;
68377;SDS011;55322;48.146;11.516;2022-11-20T02:05:12;5.20;;;1.80;;
68377;SDS011;55322;48.146;11.516;2022-11-20T02:07:43;5.47;;;1.75;;
68377;SDS011;55322;48.146;11.516;2022-11-20T02:10:10;5.45;;;1.80;;
68377;SDS011;55322;48.146;11.516;2022-11-20T02:12:36;6.30;;;1.77;;
68377;SDS011;55322;48.146;11.516;2022-11-20T02:15:20;5.90;;;1.70;;
68377;SDS011;55322;48.146;11.516;2022-11-20T02:17:45;7.33;;;1.90;;
68377;SDS011;55322;48.146;11.516;2022-11-20T02:20:11;6.85;;;1.90;;
68377;SDS011;55322;48.146;11.516;2022-11-20T02:22:48;5.53;;;1.90;;
68377;SDS011;55322;48.146;11.516;2022-11-20T02:25:19;5.75;;;2.03;;
68377;SDS011;55322;48.146;11.516;2022-11-20T02:27:45;6.15;;;2.00;;
68377;SDS011;55322;48.146;11.516;2022-11-20T02:30:11;5.80;;;1.90;;
68377;SDS011;55322;48.146;11.516;2022-11-20T02:32:37;5.43;;;2.20;;
68377;SDS011;55322;48.146;11.516;2022-11-20T02:37:43;6.15;;;1.75;;
68377;SDS011;55322;48.146;11.516;2022-11-20T02:40:11;7.35;;;2.40;;
68377;SDS011;55322;48.146;11.516;2022-11-20T02:42:36;5.23;;;1.90;;
68377;SDS011;55322;48.146;11.516;2022-11-20T02:45:03;6.63;;;2.40;;
68377;SDS011;55322;48.146;11.516;2022-11-20T02:47:29;6.30;;;2.67;;
68377;SDS011;55322;48.146;11.516;2022-11-20T02:49:55;5.90;;;2.20;;
68377;SDS011;55322;48.146;11.516;2022-11-20T02:52:20;6.60;;;2.30;;
68377;SDS011;55322;48.146;11.516;2022-11-20T02:54:45;6.70;;;2.33;;
68377;SDS011;55322;48.146;11.516;2022-11-20T02:57:11;7.50;;;2.50;;
68377;SDS011;55322;48.146;11.516;2022-11-20T02:59:36;6.50;;;2.20;;
68377;SDS011;55322;48.146;11.516;2022-11-20T03:02:01;5.90;;;2.30;;
68377;SDS011;55322;48.146;11.516;2022-11-20T03:04:26;5.43;;;1.97;;
68377;SDS011;55322;48.146;11.516;2022-11-20T03:06:52;7.23;;;2.47;;
68377;SDS011;55322;48.146;11.516;2022-11-20T03:09:17;6.53;;;2.20;;
68377;SDS011;55322;48.146;11.516;2022-11-20T03:11:42;5.27;;;2.00;;
68377;SDS011;55322;48.146;11.516;2022-11-20T03:14:08;5.70;;;2.00;;
68377;SDS011;55322;48.146;11.516;2022-11-20T03:16:33;5.30;;;1.92;;
68377;SDS011;55322;48.146;11.516;2022-11-20T03:18:59;5.80;;;1.83;;
68377;SDS011;55322;48.146;11.516;2022-11-20T03:21:25;5.20;;;1.90;;
68377;SDS011;55322;48.146;11.516;2022-11-20T03:23:50;6.90;;;2.17;;
68377;SDS011;55322;48.146;11.516;2022-11-20T03:26:20;6.93;;;2.30;;
68377;SDS011;55322;48.146;11.516;2022-11-20T03:28:48;6.00;;;1.80;;
68377;SDS011;55322;48.146;11.516;2022-11-20T03:31:15;5.60;;;2.07;;
68377;SDS011;55322;48.146;11.516;2022-11-20T03:33:42;6.47;;;1.98;;
68377;SDS011;55322;48.146;11.516;2022-11-20T03:36:09;5.70;;;2.00;;
68377;SDS011;55322;48.146;11.516;2022-11-20T03:38:36;5.10;;;1.63;;
68377;SDS011;55322;48.146;11.516;2022-11-20T03:41:03;6.47;;;2.10;;
68377;SDS011;55322;48.146;11.516;2022-11-20T03:43:30;5.57;;;1.83;;
68377;SDS011;55322;48.146;11.516;2022-11-20T03:45:55;8.18;;;1.98;;
68377;SDS011;55322;48.146;11.516;2022-11-20T03:48:21;7.63;;;1.80;;
68377;SDS011;55322;48.146;11.516;2022-11-20T03:50:46;7.90;;;2.30;;
68377;SDS011;55322;48.146;11.516;2022-11-20T03:53:13;6.10;;;2.20;;
68377;SDS011;55322;48.146;11.516;2022-11-20T03:55:38;6.13;;;2.25;;
68377;SDS011;55322;48.146;11.516;2022-11-20T03:58:04;6.53;;;2.03;;
68377;SDS011;55322;48.146;11.516;2022-11-20T04:00:29;8.63;;;1.80;;
68377;SDS011;55322;48.146;11.516;2022-11-20T04:02:57;6.37;;;1.80;;
68377;SDS011;55322;48.146;11.516;2022-11-20T04:05:23;6.55;;;2.13;;
68377;SDS011;55322;48.146;11.516;2022-11-20T04:07:48;5.73;;;1.93;;
68377;SDS011;55322;48.146;11.516;2022-11-20T04:10:14;6.77;;;1.80;;
68377;SDS011;55322;48.146;11.516;2022-11-20T04:12:39;6.10;;;1.70;;
68377;SDS011;55322;48.146;11.516;2022-11-20T04:15:04;5.37;;;1.80;;
68377;SDS011;55322;48.146;11.516;2022-11-20T04:17:30;6.45;;;2.10;;
68377;SDS011;55322;48.146;11.516;2022-11-20T04:19:55;5.93;;;1.97;;
68377;SDS011;55322;48.146;11.516;2022-11-20T04:22:21;6.30;;;2.20;;
68377;SDS011;55322;48.146;11.516;2022-11-20T04:24:46;5.63;;;2.10;;
68377;SDS011;55322;48.146;11.516;2022-11-20T04:27:11;7.23;;;2.20;;
68377;SDS011;55322;48.146;11.516;2022-11-20T04:29:36;7.03;;;1.97;;
68377;SDS011;55322;48.146;11.516;2022-11-20T04:32:02;5.90;;;2.10;;
68377;SDS011;55322;48.146;11.516;2022-11-20T04:34:27;7.72;;;2.25;;
68377;SDS011;55322;48.146;11.516;2022-11-20T04:36:52;6.50;;;1.83;;
68377;SDS011;55322;48.146;11.516;2022-11-20T04:39:18;6.60;;;1.80;;
68377;SDS011;55322;48.146;11.516;2022-11-20T04:41:43;5.73;;;1.97;;
68377;SDS011;55322;48.146;11.516;2022-11-20T04:44:08;5.70;;;1.90;;
68377;SDS011;55322;48.146;11.516;2022-11-20T04:46:35;6.70;;;1.87;;
68377;SDS011;55322;48.146;11.516;2022-11-20T04:49:05;5.60;;;1.87;;
68377;SDS011;55322;48.146;11.516;2022-11-20T04:51:31;5.35;;;1.80;;
68377;SDS011;55322;48.146;11.516;2022-11-20T04:53:56;5.53;;;1.48;;
68377;SDS011;55322;48.146;11.516;2022-11-20T04:56:22;5.33;;;1.83;;
68377;SDS011;55322;48.146;11.516;2022-11-20T04:58:48;5.13;;;1.70;;
68377;SDS011;55322;48.146;11.516;2022-11-20T05:01:14;7.03;;;2.10;;
68377;SDS011;55322;48.146;11.516;2022-11-20T05:03:42;5.95;;;1.92;;
68377;SDS011;55322;48.146;11.516;2022-11-20T05:06:09;6.68;;;2.22;;
68377;SDS011;55322;48.146;11.516;2022-11-20T05:08:35;6.03;;;2.13;;
68377;SDS011;55322;48.146;11.516;2022-11-20T05:11:01;7.57;;;2.30;;
68377;SDS011;55322;48.146;11.516;2022-11-20T05:13:28;7.38;;;2.30;;
68377;SDS011;55322;48.146;11.516;2022-11-20T05:15:53;5.30;;;2.00;;
68377;SDS011;55322;48.146;11.516;2022-11-20T05:18:18;5.83;;;2.10;;
68377;SDS011;55322;48.146;11.516;2022-11-20T05:20:44;6.30;;;2.23;;
68377;SDS011;55322;48.146;11.516;2022-11-20T05:23:09;5.57;;;2.10;;
68377;SDS011;55322;48.146;11.516;2022-11-20T05:25:34;5.63;;;2.00;;
68377;SDS011;55322;48.146;11.516;2022-11-20T05:28:00;6.20;;;2.37;;
68377;SDS011;55322;48.146;11.516;2022-11-20T05:30:25;6.20;;;2.17;;
68377;SDS011;55322;48.146;11.516;2022-11-20T05:32:50;5.60;;;2.13;;
68377;SDS011;55322;48.146;11.516;2022-11-20T05:35:16;5.30;;;2.13;;
68377;SDS011;55322;48.146;11.516;2022-11-20T05:37:41;5.97;;;2.00;;
68377;SDS011;55322;48.146;11.516;2022-11-20T05:40:06;6.03;;;2.10;;
68377;SDS011;55322;48.146;11.516;2022-11-20T05:42:32;5.70;;;2.30;;
68377;SDS011;55322;48.146;11.516;2022-11-20T05:44:58;5.55;;;2.00;;
68377;SDS011;55322;48.146;11.516;2022-11-20T05:47:25;6.47;;;2.20;;
68377;SDS011;55322;48.146;11.516;2022-11-20T05:49:51;6.68;;;2.00;;
68377;SDS011;55322;48.146;11.516;2022-11-20T05:52:16;8.20;;;2.40;;
68377;SDS011;55322;48.146;11.516;2022-11-20T05:54:42;5.82;;;2.05;;
68377;SDS011;55322;48.146;11.516;2022-11-20T05:57:07;5.53;;;1.90;;
68377;SDS011;55322;48.146;11.516;2022-11-20T05:59:32;5.50;;;2.27;;
68377;SDS011;55322;48.146;11.516;2022-11-20T06:01:57;5.60;;;2.00;;
68377;SDS011;55322;48.146;11.516;2022-11-20T06:04:23;6.20;;;2.50;;
68377;SDS011;55322;48.146;11.516;2022-11-20T06:06:48;6.90;;;1.90;;
68377;SDS011;55322;48.146;11.516;2022-11-20T06:09:14;6.33;;;2.47;;
68377;SDS011;55322;48.146;11.516;2022-11-20T06:11:39;5.72;;;2.10;;
68377;SDS011;55322;48.146;11.516;2022-11-20T06:14:04;5.60;;;2.00;;
68377;SDS011;55322;48.146;11.516;2022-11-20T06:16:29;5.57;;;2.10;;
68377;SDS011;55322;48.146;11.516;2022-11-20T06:18:55;8.80;;;2.17;;
68377;SDS011;55322;48.146;11.516;2022-11-20T06:21:21;5.50;;;2.17;;
68377;SDS011;55322;48.146;11.516;2022-11-20T06:23:47;5.78;;;1.60;;
68377;SDS011;55322;48.146;11.516;2022-11-20T06:26:15;8.07;;;2.40;;
68377;SDS011;55322;48.146;11.516;2022-11-20T06:28:42;6.50;;;2.00;;
68377;SDS011;55322;48.146;11.516;2022-11-20T06:31:09;5.70;;;1.92;;
68377;SDS011;55322;48.146;11.516;2022-11-20T06:33:36;6.63;;;2.10;;
68377;SDS011;55322;48.146;11.516;2022-11-20T06:36:02;5.60;;;1.70;;
68377;SDS011;55322;48.146;11.516;2022-11-20T06:38:27;5.83;;;1.90;;
68377;SDS011;55322;48.146;11.516;2022-11-20T06:40:53;5.43;;;1.83;;
68377;SDS011;55322;48.146;11.516;2022-11-20T06:43:19;5.37;;;1.90;;
68377;SDS011;55322;48.146;11.516;2022-11-20T06:45:45;4.80;;;1.38;;
68377;SDS011;55322;48.146;11.516;2022-11-20T06:48:10;5.33;;;1.63;;
68377;SDS011;55322;48.146;11.516;2022-11-20T06:50:38;6.00;;;1.60;;
68377;SDS011;55322;48.146;11.516;2022-11-20T06:53:04;5.18;;;1.58;;
68377;SDS011;55322;48.146;11.516;2022-11-20T06:55:30;5.32;;;1.50;;
68377;SDS011;55322;48.146;11.516;2022-11-20T06:57:56;5.37;;;1.53;;
68377;SDS011;55322;48.146;11.516;2022-11-20T07:00:21;4.80;;;1.30;;
68377;SDS011;55322;48.146;11.516;2022-11-20T07:02:47;6.10;;;1.50;;
68377;SDS011;55322;48.146;11.516;2022-11-20T07:05:12;5.63;;;1.50;;
68377;SDS011;55322;48.146;11.516;2022-11-20T07:07:37;4.97;;;1.43;;
68377;SDS011;55322;48.146;11.516;2022-11-20T07:10:03;4.23;;;1.20;;
68377;SDS011;55322;48.146;11.516;2022-11-20T07:12:29;4.82;;;1.35;;
68377;SDS011;55322;48.146;11.516;2022-11-20T07:14:54;5.33;;;1.50;;
68377;SDS011;55322;48.146;11.516;2022-11-20T07:17:19;5.67;;;1.53;;
68377;SDS011;55322;48.146;11.516;2022-11-20T07:19:45;4.97;;;1.67;;
68377;SDS011;55322;48.146;11.516;2022-11-20T07:22:10;5.87;;;1.90;;
68377;SDS011;55322;48.146;11.516;2022-11-20T07:24:35;5.40;;;1.40;;
68377;SDS011;55322;48.146;11.516;2022-11-20T07:27:01;5.40;;;1.30;;
68377;SDS011;55322;48.146;11.516;2022-11-20T07:29:26;5.33;;;1.20;;
68377;SDS011;55322;48.146;11.516;2022-11-20T07:31:51;5.20;;;1.50;;
68377;SDS011;55322;48.146;11.516;2022-11-20T07:34:16;5.30;;;1.40;;
68377;SDS011;55322;48.146;11.516;2022-11-20T07:36:42;4.80;;;1.30;;
68377;SDS011;55322;48.146;11.516;2022-11-20T07:39:07;4.83;;;1.33;;
68377;SDS011;55322;48.146;11.516;2022-11-20T07:41:32;5.50;;;1.40;;
68377;SDS011;55322;48.146;11.516;2022-11-20T07:43:58;4.83;;;1.20;;
68377;SDS011;55322;48.146;11.516;2022-11-20T07:46:23;6.40;;;1.50;;
68377;SDS011;55322;48.146;11.516;2022-11-20T07:48:48;5.50;;;1.43;;
68377;SDS011;55322;48.146;11.516;2022-11-20T07:51:14;5.37;;;1.53;;
68377;SDS011;55322;48.146;11.516;2022-11-20T07:53:39;5.73;;;1.70;;
68377;SDS011;55322;48.146;11.516;2022-11-20T07:56:04;7.20;;;1.77;;
68377;SDS011;55322;48.146;11.516;2022-11-20T07:58:30;5.97;;;1.70;;
68377;SDS011;55322;48.146;11.516;2022-11-20T08:00:58;5.80;;;1.70;;
68377;SDS011;55322;48.146;11.516;2022-11-20T08:03:28;5.90;;;1.85;;
68377;SDS011;55322;48.146;11.516;2022-11-20T08:05:53;6.00;;;1.77;;
68377;SDS011;55322;48.146;11.516;2022-11-20T08:08:18;5.53;;;1.80;;
68377;SDS011;55322;48.146;11.516;2022-11-20T08:10:44;5.23;;;1.73;;
68377;SDS011;55322;48.146;11.516;2022-11-20T08:13:09;5.30;;;1.80;;
68377;SDS011;55322;48.146;11.516;2022-11-20T08:15:53;4.75;;;1.40;;
68377;SDS011;55322;48.146;11.516;2022-11-20T08:18:18;5.43;;;1.93;;
68377;SDS011;55322;48.146;11.516;2022-11-20T08:20:44;5.70;;;1.70;;
68377;SDS011;55322;48.146;11.516;2022-11-20T08:23:10;5.35;;;1.77;;
68377;SDS011;55322;48.146;11.516;2022-11-20T08:25:36;5.60;;;1.80;;
68377;SDS011;55322;48.146;11.516;2022-11-20T08:28:03;5.87;;;1.67;;
68377;SDS011;55322;48.146;11.516;2022-11-20T08:30:30;5.70;;;1.58;;
68377;SDS011;55322;48.146;11.516;2022-11-20T08:33:00;5.38;;;1.77;;
68377;SDS011;55322;48.146;11.516;2022-11-20T08:35:27;5.57;;;1.60;;
68377;SDS011;55322;48.146;11.516;2022-11-20T08:37:52;5.80;;;1.77;;
68377;SDS011;55322;48.146;11.516;2022-11-20T08:40:18;7.13;;;1.80;;
68377;SDS011;55322;48.146;11.516;2022-11-20T08:42:49;5.60;;;1.60;;
68377;SDS011;55322;48.146;11.516;2022-11-20T08:45:16;7.10;;;1.85;;
68377;SDS011;55322;48.146;11.516;2022-11-20T08:47:42;6.38;;;1.77;;
68377;SDS011;55322;48.146;11.516;2022-11-20T08:50:09;6.90;;;1.88;;
68377;SDS011;55322;48.146;11.516;2022-11-20T08:52:36;7.47;;;1.50;;
68377;SDS011;55322;48.146;11.516;2022-11-20T08:55:01;4.60;;;1.30;;
68377;SDS011;55322;48.146;11.516;2022-11-20T08:57:27;5.23;;;1.40;;
68377;SDS011;55322;48.146;11.516;2022-11-20T08:59:52;5.22;;;1.42;;
68377;SDS011;55322;48.146;11.516;2022-11-20T09:02:18;4.80;;;1.30;;
68377;SDS011;55322;48.146;11.516;2022-11-20T09:04:43;6.27;;;1.40;;
68377;SDS011;55322;48.146;11.516;2022-11-20T09:07:08;5.47;;;1.30;;
68377;SDS011;55322;48.146;11.516;2022-11-20T09:09:34;5.40;;;1.30;;
68377;SDS011;55322;48.146;11.516;2022-11-20T09:11:59;5.60;;;1.20;;
68377;SDS011;55322;48.146;11.516;2022-11-20T09:14:24;5.77;;;1.33;;
68377;SDS011;55322;48.146;11.516;2022-11-20T09:16:54;5.07;;;1.15;;
68377;SDS011;55322;48.146;11.516;2022-11-20T09:19:19;4.85;;;1.20;;
68377;SDS011;55322;48.146;11.516;2022-11-20T09:21:45;4.67;;;1.20;;
68377;SDS011;55322;48.146;11.516;2022-11-20T09:24:10;5.37;;;1.50;;
68377;SDS011;55322;48.146;11.516;2022-11-20T09:26:36;6.20;;;1.20;;
68377;SDS011;55322;48.146;11.516;2022-11-20T09:29:01;5.27;;;1.40;;
68377;SDS011;55322;48.146;11.516;2022-11-20T09:31:26;5.00;;;1.20;;
68377;SDS011;55322;48.146;11.516;2022-11-20T09:33:52;5.17;;;1.20;;
68377;SDS011;55322;48.146;11.516;2022-11-20T09:36:17;5.43;;;1.33;;
68377;SDS011;55322;48.146;11.516;2022-11-20T09:38:44;4.78;;;1.10;;
68377;SDS011;55322;48.146;11.516;2022-11-20T09:44:02;5.97;;;1.13;;
68377;SDS011;55322;48.146;11.516;2022-11-20T09:55:15;4.83;;;1.20;;
68377;SDS011;55322;48.146;11.516;2022-11-20T09:57:42;3.70;;;0.80;;
68377;SDS011;55322;48.146;11.516;2022-11-20T10:00:11;5.38;;;1.30;;
68377;SDS011;55322;48.146;11.516;2022-11-20T10:05:44;3.93;;;1.03;;
68377;SDS011;55322;48.146;11.516;2022-11-20T10:08:22;4.68;;;0.88;;
68377;SDS011;55322;48.146;11.516;2022-11-20T10:10:52;4.10;;;1.00;;
68377;SDS011;55322;48.146;11.516;2022-11-20T10:16:03;4.40;;;1.20;;
68377;SDS011;55322;48.146;11.516;2022-11-20T10:29:32;3.85;;;0.90;;
68377;SDS011;55322;48.146;11.516;2022-11-20T10:32:02;4.60;;;1.08;;
68377;SDS011;55322;48.146;11.516;2022-11-20T10:34:46;4.77;;;1.10;;
68377;SDS011;55322;48.146;11.516;2022-11-20T10:37:17;3.92;;;0.90;;
68377;SDS011;55322;48.146;11.516;2022-11-20T10:42:44;5.38;;;0.85;;
68377;SDS011;55322;48.146;11.516;2022-11-20T10:47:59;4.43;;;0.87;;
68377;SDS011;55322;48.146;11.516;2022-11-20T10:50:35;4.68;;;1.13;;
68377;SDS011;55322;48.146;11.516;2022-11-20T10:53:08;9.63;;;1.20;;
68377;SDS011;55322;48.146;11.516;2022-11-20T10:56:09;4.53;;;0.90;;
68377;SDS011;55322;48.146;11.516;2022-11-20T10:59:03;3.70;;;0.80;;
68377;SDS011;55322;48.146;11.516;2022-11-20T11:01:41;3.57;;;0.70;;
68377;SDS011;55322;48.146;11.516;2022-11-20T11:04:14;4.10;;;0.65;;
68377;SDS011;55322;48.146;11.516;2022-11-20T11:06:54;4.25;;;0.73;;
68377;SDS011;55322;48.146;11.516;2022-11-20T11:09:38;3.78;;;0.60;;
68377;SDS011;55322;48.146;11.516;2022-11-20T11:12:08;4.03;;;0.80;;
68377;SDS011;55322;48.146;11.516;2022-11-20T11:14:50;5.27;;;0.70;;
68377;SDS011;55322;48.146;11.516;2022-11-20T11:17:22;3.75;;;0.73;;
68377;SDS011;55322;48.146;11.516;2022-11-20T11:20:04;3.50;;;0.70;;
68377;SDS011;55322;48.146;11.516;2022-11-20T11:22:43;4.10;;;0.70;;
68377;SDS011;55322;48.146;11.516;2022-11-20T11:27:59;4.93;;;1.00;;
68377;SDS011;55322;48.146;11.516;2022-11-20T11:30:27;3.70;;;0.80;;
68377;SDS011;55322;48.146;11.516;2022-11-20T11:33:04;4.47;;;0.85;;
68377;SDS011;55322;48.146;11.516;2022-11-20T11:35:31;5.15;;;1.10;;
68377;SDS011;55322;48.146;11.516;2022-11-20T11:38:04;4.83;;;1.00;;
68377;SDS011;55322;48.146;11.516;2022-11-20T11:40:32;5.38;;;0.90;;
68377;SDS011;55322;48.146;11.516;2022-11-20T11:43:02;5.07;;;0.80;;
68377;SDS011;55322;48.146;11.516;2022-11-20T11:45:52;6.15;;;1.10;;
68377;SDS011;55322;48.146;11.516;2022-11-20T11:48:19;4.03;;;0.80;;
68377;SDS011;55322;48.146;11.516;2022-11-20T11:50:48;3.72;;;0.80;;
68377;SDS011;55322;48.146;11.516;2022-11-20T11:53:16;3.13;;;0.63;;
68377;SDS011;55322;48.146;11.516;2022-11-20T11:56:02;5.03;;;0.85;;
68377;SDS011;55322;48.146;11.516;2022-11-20T11:58:49;3.92;;;0.90;;
68377;SDS011;55322;48.146;11.516;2022-11-20T12:04:03;4.07;;;0.80;;
68377;SDS011;55322;48.146;11.516;2022-11-20T12:06:47;4.23;;;0.90;;
68377;SDS011;55322;48.146;11.516;2022-11-20T12:09:16;4.05;;;0.90;;
68377;SDS011;55322;48.146;11.516;2022-11-20T12:11:46;4.28;;;1.00;;
68377;SDS011;55322;48.146;11.516;2022-11-20T12:14:27;4.22;;;0.85;;
68377;SDS011;55322;48.146;11.516;2022-11-20T12:16:58;3.90;;;0.95;;
68377;SDS011;55322;48.146;11.516;2022-11-20T12:19:26;5.23;;;1.00;;
68377;SDS011;55322;48.146;11.516;2022-11-20T12:31:00;4.85;;;0.90;;
68377;SDS011;55322;48.146;11.516;2022-11-20T12:36:47;4.30;;;1.00;;
68377;SDS011;55322;48.146;11.516;2022-11-20T12:39:42;4.50;;;1.00;;
68377;SDS011;55322;48.146;11.516;2022-11-20T12:42:12;4.18;;;0.82;;
68377;SDS011;55322;48.146;11.516;2022-11-20T12:45:04;4.80;;;0.90;;
68377;SDS011;55322;48.146;11.516;2022-11-20T12:50:25;4.53;;;0.90;;
68377;SDS011;55322;48.146;11.516;2022-11-20T12:55:36;4.63;;;1.20;;
68377;SDS011;55322;48.146;11.516;2022-11-20T13:00:38;6.17;;;1.17;;
68377;SDS011;55322;48.146;11.516;2022-11-20T13:06:05;4.35;;;0.80;;
68377;SDS011;55322;48.146;11.516;2022-11-20T13:08:40;4.43;;;1.10;;
68377;SDS011;55322;48.146;11.516;2022-11-20T13:16:13;4.25;;;0.98;;
68377;SDS011;55322;48.146;11.516;2022-11-20T13:18:40;4.25;;;1.00;;
68377;SDS011;55322;48.146;11.516;2022-11-20T13:21:17;4.50;;;0.90;;
68377;SDS011;55322;48.146;11.516;2022-11-20T13:23:45;6.43;;;1.02;;
68377;SDS011;55322;48.146;11.516;2022-11-20T13:26:19;4.80;;;1.20;;
68377;SDS011;55322;48.146;11.516;2022-11-20T13:28:58;5.18;;;1.10;;
68377;SDS011;55322;48.146;11.516;2022-11-20T13:31:30;4.45;;;1.10;;
68377;SDS011;55322;48.146;11.516;2022-11-20T13:33:57;5.45;;;1.30;;
68377;SDS011;55322;48.146;11.516;2022-11-20T13:36:26;5.05;;;1.45;;
68377;SDS011;55322;48.146;11.516;2022-11-20T13:38:53;4.80;;;1.20;;
68377;SDS011;55322;48.146;11.516;2022-11-20T13:41:24;4.65;;;1.15;;
68377;SDS011;55322;48.146;11.516;2022-11-20T13:49:10;4.43;;;1.27;;
68377;SDS011;55322;48.146;11.516;2022-11-20T13:54:55;4.65;;;1.08;;
68377;SDS011;55322;48.146;11.516;2022-11-20T13:57:37;5.22;;;1.23;;
68377;SDS011;55322;48.146;11.516;2022-11-20T14:00:15;5.13;;;1.20;;
68377;SDS011;55322;48.146;11.516;2022-11-20T14:05:40;4.67;;;1.17;;
68377;SDS011;55322;48.146;11.516;2022-11-20T14:08:29;6.35;;;1.33;;
68377;SDS011;55322;48.146;11.516;2022-11-20T14:11:33;5.32;;;1.40;;
68377;SDS011;55322;48.146;11.516;2022-11-20T14:16:34;4.88;;;1.30;;
68377;SDS011;55322;48.146;11.516;2022-11-20T14:21:44;4.72;;;1.13;;
68377;SDS011;55322;48.146;11.516;2022-11-20T14:24:11;7.38;;;1.00;;
68377;SDS011;55322;48.146;11.516;2022-11-20T14:26:41;4.50;;;0.77;;
68377;SDS011;55322;48.146;11.516;2022-11-20T14:29:50;5.20;;;1.10;;
68377;SDS011;55322;48.146;11.516;2022-11-20T14:32:03;4.10;;;1.00;;
68377;SDS011;55322;48.146;11.516;2022-11-20T14:34:30;4.82;;;1.05;;
68377;SDS011;55322;48.146;11.516;2022-11-20T14:37:01;5.28;;;1.25;;
68377;SDS011;55322;48.146;11.516;2022-11-20T14:39:41;4.10;;;0.90;;
68377;SDS011;55322;48.146;11.516;2022-11-20T14:42:15;4.43;;;1.00;;
68377;SDS011;55322;48.146;11.516;2022-11-20T14:44:42;4.27;;;0.93;;
68377;SDS011;55322;48.146;11.516;2022-11-20T14:47:08;5.07;;;1.05;;
68377;SDS011;55322;48.146;11.516;2022-11-20T14:49:37;3.75;;;0.88;;
68377;SDS011;55322;48.146;11.516;2022-11-20T14:52:20;3.47;;;0.60;;
68377;SDS011;55322;48.146;11.516;2022-11-20T14:54:51;3.70;;;0.60;;
68377;SDS011;55322;48.146;11.516;2022-11-20T14:59:48;4.18;;;0.70;;
68377;SDS011;55322;48.146;11.516;2022-11-20T15:02:17;3.95;;;0.50;;
68377;SDS011;55322;48.146;11.516;2022-11-20T15:04:50;3.58;;;0.73;;
68377;SDS011;55322;48.146;11.516;2022-11-20T15:07:29;2.73;;;0.50;;
68377;SDS011;55322;48.146;11.516;2022-11-20T15:10:00;3.35;;;0.70;;
68377;SDS011;55322;48.146;11.516;2022-11-20T15:12:27;4.32;;;0.60;;
68377;SDS011;55322;48.146;11.516;2022-11-20T15:14:54;3.53;;;0.60;;
68377;SDS011;55322;48.146;11.516;2022-11-20T15:17:20;3.83;;;0.80;;
68377;SDS011;55322;48.146;11.516;2022-11-20T15:19:46;3.58;;;0.70;;
68377;SDS011;55322;48.146;11.516;2022-11-20T15:22:11;3.67;;;0.60;;
68377;SDS011;55322;48.146;11.516;2022-11-20T15:24:41;4.38;;;0.82;;
68377;SDS011;55322;48.146;11.516;2022-11-20T15:27:07;4.10;;;0.70;;
68377;SDS011;55322;48.146;11.516;2022-11-20T15:29:34;3.25;;;0.68;;
68377;SDS011;55322;48.146;11.516;2022-11-20T15:31:59;4.70;;;0.70;;
68377;SDS011;55322;48.146;11.516;2022-11-20T15:34:26;3.83;;;0.70;;
68377;SDS011;55322;48.146;11.516;2022-11-20T15:36:51;4.75;;;0.70;;
68377;SDS011;55322;48.146;11.516;2022-11-20T15:39:18;5.15;;;0.70;;
68377;SDS011;55322;48.146;11.516;2022-11-20T15:41:43;5.33;;;0.83;;
68377;SDS011;55322;48.146;11.516;2022-11-20T15:44:08;4.00;;;0.60;;
68377;SDS011;55322;48.146;11.516;2022-11-20T15:46:35;3.50;;;0.52;;
68377;SDS011;55322;48.146;11.516;2022-11-20T15:49:05;4.93;;;0.90;;
68377;SDS011;55322;48.146;11.516;2022-11-20T15:51:34;4.18;;;0.90;;
68377;SDS011;55322;48.146;11.516;2022-11-20T15:54:13;4.75;;;0.90;;
68377;SDS011;55322;48.146;11.516;2022-11-20T15:56:39;4.50;;;0.90;;
68377;SDS011;55322;48.146;11.516;2022-11-20T15:59:04;5.00;;;1.00;;
68377;SDS011;55322;48.146;11.516;2022-11-20T16:01:29;4.37;;;0.80;;
68377;SDS011;55322;48.146;11.516;2022-11-20T16:03:55;4.72;;;1.10;;
68377;SDS011;55322;48.146;11.516;2022-11-20T16:06:20;5.33;;;1.20;;
68377;SDS011;55322;48.146;11.516;2022-11-20T16:08:46;5.90;;;1.30;;
68377;SDS011;55322;48.146;11.516;2022-11-20T16:11:12;5.53;;;1.17;;
68377;SDS011;55322;48.146;11.516;2022-11-20T16:13:39;5.22;;;1.20;;